Time;durP1;ratioP1;P1;durP2;ratioP2;P2;SDS_P1;SDS_P2;PMS_P1;PMS_P2;Temp;Humidity;BMP_temperature;BMP_pressure;BME280_temperature;BME280_humidity;BME280_pressure;Samples;Min_cycle;Max_cycle;Signal;HPM_P1;HPM_P2
2023/02/09 00:01:18;;;;;;;9.00;3.55;;;-0.40;99.90;;;;;;4975279;28;20054;-71
2023/02/09 00:03:44;;;;;;;7.05;3.72;;;-0.40;99.90;;;;;;4972376;28;20038;-71
2023/02/09 00:06:15;;;;;;;11.93;4.93;;;-0.50;99.90;;;;;;4976015;28;20046;-70
2023/02/09 00:08:41;;;;;;;9.25;3.95;;;-0.50;99.90;;;;;;4972213;28;20035;-70
2023/02/09 00:13:21;;;;;;;13.48;4.60;;;-0.60;99.90;;;;;;4966285;28;20042;-70
2023/02/09 00:14:14;;;;;;;7.65;3.10;;;-0.60;99.90;;;;;;4987736;28;20030;-70
2023/02/09 00:16:40;;;;;;;10.18;6.35;;;-0.70;99.90;;;;;;4977491;28;20031;-70
2023/02/09 00:19:06;;;;;;;9.27;4.85;;;-0.70;99.90;;;;;;4971714;28;20113;-70
2023/02/09 00:21:32;;;;;;;10.38;3.55;;;-0.70;99.90;;;;;;4975193;28;20106;-70
2023/02/09 00:23:58;;;;;;;7.53;3.88;;;-0.70;99.90;;;;;;4971839;28;20495;-72
2023/02/09 00:26:25;;;;;;;12.38;5.05;;;-0.70;99.90;;;;;;4975399;28;20101;-71
2023/02/09 00:28:50;;;;;;;10.13;4.55;;;-0.70;99.90;;;;;;4972849;28;20028;-71
2023/02/09 00:31:16;;;;;;;5.45;3.30;;;-0.90;99.90;;;;;;4972291;28;20113;-70
2023/02/09 00:33:42;;;;;;;8.13;4.00;;;-0.90;99.90;;;;;;4973127;28;20027;-70
2023/02/09 00:36:11;;;;;;;14.45;4.65;;;-0.90;99.90;;;;;;4968683;28;20038;-70
2023/02/09 00:38:39;;;;;;;14.05;3.65;;;-0.90;99.90;;;;;;4964790;28;20051;-70
2023/02/09 00:41:05;;;;;;;7.80;3.03;;;-0.90;99.90;;;;;;4974734;28;20125;-70
2023/02/09 00:43:32;;;;;;;9.63;3.70;;;-0.90;99.90;;;;;;4949585;28;20038;-71
2023/02/09 00:45:58;;;;;;;9.38;3.22;;;-1.00;99.90;;;;;;4973302;28;20038;-70
2023/02/09 00:48:24;;;;;;;11.88;3.80;;;-0.90;99.90;;;;;;4979101;28;20030;-70
2023/02/09 00:50:51;;;;;;;6.72;4.30;;;-1.00;99.90;;;;;;4989982;28;20030;-70
2023/02/09 00:53:19;;;;;;;7.43;4.28;;;-1.00;99.90;;;;;;4967182;28;20034;-71
2023/02/09 00:55:46;;;;;;;7.78;4.18;;;-1.10;99.90;;;;;;4988801;28;20038;-70
2023/02/09 00:58:12;;;;;;;7.50;3.45;;;-1.10;99.90;;;;;;4967480;28;20490;-71
2023/02/09 01:00:38;;;;;;;9.80;3.25;;;-1.00;99.90;;;;;;4987875;28;20041;-71
2023/02/09 01:03:04;;;;;;;13.80;4.50;;;-1.00;99.90;;;;;;4968602;28;20038;-71
2023/02/09 01:05:30;;;;;;;8.50;2.72;;;-1.00;99.90;;;;;;4969170;28;20065;-71
2023/02/09 01:07:56;;;;;;;8.18;4.18;;;-1.00;99.90;;;;;;4982825;28;20097;-70
2023/02/09 01:10:21;;;;;;;9.43;3.97;;;-1.10;99.90;;;;;;4985418;28;20121;-71
2023/02/09 01:12:47;;;;;;;11.00;3.72;;;-1.10;99.90;;;;;;4969728;28;20040;-71
2023/02/09 01:15:14;;;;;;;11.00;3.58;;;-1.10;99.90;;;;;;4967449;28;20516;-71
2023/02/09 01:17:40;;;;;;;6.10;2.90;;;-1.10;99.90;;;;;;4969666;28;20084;-71
2023/02/09 01:20:08;;;;;;;6.97;3.60;;;-1.20;99.90;;;;;;4970053;28;20505;-71
2023/02/09 01:22:35;;;;;;;6.03;3.03;;;-1.10;99.90;;;;;;4986994;28;20045;-71
2023/02/09 01:25:02;;;;;;;7.38;4.13;;;-1.10;99.90;;;;;;4967193;28;20036;-71
2023/02/09 01:27:27;;;;;;;8.02;3.75;;;-1.10;99.90;;;;;;4986767;28;20030;-71
2023/02/09 01:29:53;;;;;;;5.35;2.40;;;-1.20;99.90;;;;;;4967493;28;20124;-70
2023/02/09 01:32:19;;;;;;;8.88;3.75;;;-1.30;99.90;;;;;;4976768;28;20023;-71
2023/02/09 01:34:44;;;;;;;11.23;4.30;;;-1.30;99.90;;;;;;4975395;28;20043;-71
2023/02/09 01:37:10;;;;;;;6.78;4.28;;;-1.40;99.90;;;;;;4955902;28;20083;-70
2023/02/09 01:39:36;;;;;;;6.25;2.63;;;-1.50;99.90;;;;;;4971012;28;20045;-71
2023/02/09 01:42:03;;;;;;;6.05;4.07;;;-1.50;99.90;;;;;;4958674;28;20038;-70
2023/02/09 01:44:29;;;;;;;10.88;4.90;;;-1.60;99.90;;;;;;4961114;28;20038;-70
2023/02/09 01:46:54;;;;;;;9.88;3.65;;;-1.70;99.90;;;;;;4984946;28;20041;-70
2023/02/09 01:49:25;;;;;;;5.80;3.65;;;-1.80;99.90;;;;;;4979468;28;20133;-70
2023/02/09 01:52:06;;;;;;;5.63;4.13;;;-1.80;99.90;;;;;;4967078;28;20034;-70
2023/02/09 01:54:39;;;;;;;11.98;4.45;;;-1.90;99.90;;;;;;4968580;28;20529;-70
2023/02/09 01:57:10;;;;;;;5.53;3.28;;;-1.90;99.90;;;;;;4967595;28;20050;-70
2023/02/09 01:59:41;;;;;;;5.63;2.85;;;-1.90;99.90;;;;;;4979631;28;20125;-71
2023/02/09 02:02:08;;;;;;;8.68;4.75;;;-1.90;99.90;;;;;;4966888;28;20034;-71
2023/02/09 02:04:36;;;;;;;9.15;5.07;;;-1.90;99.90;;;;;;4958735;28;20558;-71
2023/02/09 02:07:31;;;;;;;7.28;3.58;;;-2.00;99.90;;;;;;4948310;28;20475;-71
2023/02/09 02:09:57;;;;;;;8.52;3.33;;;-2.10;99.90;;;;;;4953667;28;20039;-71
2023/02/09 02:12:24;;;;;;;8.73;4.63;;;-2.20;99.90;;;;;;4970810;28;20038;-71
2023/02/09 02:14:50;;;;;;;4.40;3.40;;;-2.20;99.90;;;;;;4966295;28;20030;-71
2023/02/09 02:17:37;;;;;;;6.72;3.33;;;-2.20;99.90;;;;;;4980645;28;20039;-71
2023/02/09 02:20:24;;;;;;;7.28;3.35;;;-2.20;99.90;;;;;;4974383;28;20038;-71
2023/02/09 02:23:16;;;;;;;6.55;1.60;;;-2.30;99.90;;;;;;4987395;28;20042;-71
2023/02/09 02:26:07;;;;;;;2.78;1.88;;;-2.20;99.90;;;;;;4975352;28;20122;-71
2023/02/09 02:28:57;;;;;;;10.95;3.33;;;-2.20;99.90;;;;;;4937518;28;20038;-71
2023/02/09 02:31:44;;;;;;;5.47;2.60;;;-2.20;99.90;;;;;;4972996;28;20059;-71
2023/02/09 02:34:39;;;;;;;4.57;2.50;;;-2.30;99.90;;;;;;4967597;28;20043;-71
2023/02/09 02:37:31;;;;;;;6.43;3.55;;;-2.30;99.90;;;;;;4961390;28;20130;-71
2023/02/09 02:40:05;;;;;;;14.05;2.80;;;-2.40;99.90;;;;;;4966628;28;20045;-71
2023/02/09 02:42:58;;;;;;;7.55;3.00;;;-2.40;99.90;;;;;;4985017;28;20034;-71
2023/02/09 02:45:41;;;;;;;7.95;3.88;;;-2.40;99.90;;;;;;4974661;28;20057;-71
2023/02/09 02:48:33;;;;;;;7.13;2.55;;;-2.40;99.90;;;;;;4972653;28;20053;-71
2023/02/09 02:51:16;;;;;;;3.97;2.38;;;-2.40;99.90;;;;;;4960353;28;20038;-71
2023/02/09 02:53:49;;;;;;;7.18;1.80;;;-2.40;99.90;;;;;;4969284;28;20034;-71
2023/02/09 02:56:29;;;;;;;8.70;3.15;;;-2.40;99.90;;;;;;4966205;28;20036;-71
2023/02/09 02:58:58;;;;;;;6.57;2.55;;;-2.40;99.90;;;;;;4968019;28;20062;-71
2023/02/09 03:01:28;;;;;;;6.40;2.65;;;-2.40;99.90;;;;;;4950028;28;20038;-71
2023/02/09 03:03:55;;;;;;;10.27;4.18;;;-2.40;99.90;;;;;;4967029;28;20487;-71
2023/02/09 03:06:21;;;;;;;5.82;3.00;;;-2.50;99.90;;;;;;4979686;28;20030;-71
2023/02/09 03:08:52;;;;;;;8.05;4.13;;;-2.60;99.90;;;;;;4960744;28;20076;-71
2023/02/09 03:11:21;;;;;;;5.63;3.13;;;-2.60;99.90;;;;;;4965954;28;20038;-71
2023/02/09 03:14:17;;;;;;;6.10;3.30;;;-2.70;99.90;;;;;;4964752;28;20034;-71
2023/02/09 03:20:45;;;;;;;4.28;3.17;;;-2.80;99.90;;;;;;4979802;28;20046;-71
2023/02/09 03:23:37;;;;;;;7.20;4.60;;;-2.80;99.90;;;;;;4956973;28;20483;-71
2023/02/09 03:26:12;;;;;;;6.50;3.13;;;-2.70;99.90;;;;;;4983175;28;20042;-71
2023/02/09 03:28:41;;;;;;;2.60;1.90;;;-2.70;99.90;;;;;;4965546;28;20057;-71
2023/02/09 03:31:08;;;;;;;7.20;3.55;;;-2.70;99.90;;;;;;4965869;28;20037;-71
2023/02/09 03:33:37;;;;;;;8.60;4.05;;;-2.70;99.90;;;;;;4974804;28;20619;-71
2023/02/09 03:36:11;;;;;;;6.50;3.85;;;-2.80;99.90;;;;;;4965779;28;20405;-71
2023/02/09 03:38:37;;;;;;;4.05;2.88;;;-2.80;99.90;;;;;;4965548;28;20498;-71
2023/02/09 03:41:03;;;;;;;16.60;3.42;;;-2.80;99.90;;;;;;4983106;28;20133;-71
2023/02/09 03:46:13;;;;;;;16.25;4.70;;;-2.90;99.90;;;;;;4982725;28;20046;-71
2023/02/09 03:48:39;;;;;;;6.68;2.63;;;-3.00;99.90;;;;;;4974680;28;20037;-71
2023/02/09 03:51:08;;;;;;;4.30;2.03;;;-3.00;99.90;;;;;;4982872;28;20034;-71
2023/02/09 03:53:35;;;;;;;5.18;3.08;;;-3.00;99.90;;;;;;4964560;28;20497;-71
2023/02/09 03:56:03;;;;;;;8.30;4.68;;;-3.00;99.90;;;;;;4982867;28;20037;-71
2023/02/09 03:58:29;;;;;;;8.75;4.13;;;-3.10;99.90;;;;;;4964770;28;20069;-71
2023/02/09 04:01:06;;;;;;;7.43;2.80;;;-3.10;99.90;;;;;;4982932;28;20070;-71
2023/02/09 04:03:33;;;;;;;6.32;2.67;;;-3.10;99.90;;;;;;4956262;28;20058;-71
2023/02/09 04:06:00;;;;;;;5.22;2.80;;;-3.10;99.90;;;;;;4956665;28;20038;-72
2023/02/09 04:08:28;;;;;;;5.85;2.17;;;-3.10;99.90;;;;;;4970789;28;20454;-72
2023/02/09 04:10:57;;;;;;;11.40;4.60;;;-3.20;99.90;;;;;;4981514;28;20093;-71
2023/02/09 04:13:24;;;;;;;6.22;3.30;;;-3.20;99.90;;;;;;4970362;28;20037;-71
2023/02/09 04:15:50;;;;;;;6.35;3.65;;;-3.30;99.90;;;;;;4986151;28;20070;-71
2023/02/09 04:18:16;;;;;;;8.45;4.40;;;-3.20;99.90;;;;;;4967336;28;20533;-71
2023/02/09 04:20:42;;;;;;;7.22;2.95;;;-3.20;99.90;;;;;;4945797;28;20498;-71
2023/02/09 04:23:08;;;;;;;6.15;2.50;;;-3.20;99.90;;;;;;4981644;28;20037;-71
2023/02/09 04:25:34;;;;;;;10.48;3.33;;;-3.20;99.90;;;;;;4949474;28;20442;-72
2023/02/09 04:27:59;;;;;;;11.98;3.35;;;-3.30;99.90;;;;;;4954001;28;20030;-71
2023/02/09 04:30:25;;;;;;;11.20;3.83;;;-3.20;99.90;;;;;;4951179;28;20041;-72
2023/02/09 04:32:51;;;;;;;5.57;3.30;;;-3.10;99.90;;;;;;4953245;28;20035;-71
2023/02/09 04:35:17;;;;;;;9.00;4.30;;;-3.00;99.90;;;;;;4962920;28;20193;-72
2023/02/09 04:37:42;;;;;;;10.50;3.00;;;-2.90;99.90;;;;;;4962364;28;20043;-71
2023/02/09 04:40:09;;;;;;;15.63;4.88;;;-2.70;99.90;;;;;;4983974;28;20058;-71
2023/02/09 04:42:35;;;;;;;7.57;3.33;;;-2.60;99.90;;;;;;4987497;28;20035;-71
2023/02/09 04:45:00;;;;;;;5.20;2.20;;;-2.50;99.90;;;;;;4978992;28;20414;-72
2023/02/09 04:47:26;;;;;;;3.20;1.67;;;-2.60;99.90;;;;;;5005646;23;20101;-68
2023/02/09 04:49:52;;;;;;;10.15;3.80;;;-2.70;99.90;;;;;;5017746;28;20128;-68
2023/02/09 04:52:18;;;;;;;6.90;3.00;;;-2.70;99.90;;;;;;5032825;28;20030;-68
2023/02/09 04:54:43;;;;;;;10.88;3.45;;;-2.70;99.90;;;;;;5027970;28;20064;-68
2023/02/09 04:59:54;;;;;;;11.90;4.15;;;-2.70;99.90;;;;;;5009262;28;20117;-68
2023/02/09 05:02:19;;;;;;;11.43;4.22;;;-2.80;99.90;;;;;;5011691;28;20102;-68
2023/02/09 05:04:45;;;;;;;17.23;4.18;;;-2.80;99.90;;;;;;5007586;28;20092;-68
2023/02/09 05:07:11;;;;;;;10.32;4.53;;;-2.80;99.90;;;;;;5012823;28;20026;-68
2023/02/09 05:09:37;;;;;;;7.53;4.50;;;-2.90;99.90;;;;;;5008221;28;20030;-68
2023/02/09 05:12:03;;;;;;;11.23;4.65;;;-2.80;99.90;;;;;;4995717;28;20097;-68
2023/02/09 05:14:28;;;;;;;10.55;4.95;;;-2.80;99.90;;;;;;5005210;28;20101;-68
2023/02/09 05:16:54;;;;;;;6.70;3.83;;;-2.90;99.90;;;;;;5012166;28;20105;-68
2023/02/09 05:19:20;;;;;;;5.05;2.83;;;-2.70;99.90;;;;;;5004564;28;20100;-67
2023/02/09 05:21:46;;;;;;;4.20;2.40;;;-2.80;99.90;;;;;;5006663;28;20508;-67
2023/02/09 05:24:11;;;;;;;9.55;3.55;;;-2.90;99.90;;;;;;4998159;28;20027;-68
2023/02/09 05:26:37;;;;;;;7.22;2.67;;;-3.00;99.90;;;;;;5000485;28;20061;-67
2023/02/09 05:29:03;;;;;;;16.50;3.08;;;-2.90;99.90;;;;;;5012287;28;20033;-68
2023/02/09 05:31:29;;;;;;;9.15;3.83;;;-2.90;99.90;;;;;;5007167;28;20073;-68
2023/02/09 05:33:54;;;;;;;7.43;4.15;;;-2.90;99.90;;;;;;5011578;28;20029;-68
2023/02/09 05:36:20;;;;;;;5.28;3.28;;;-2.90;99.90;;;;;;5005180;28;20049;-68
2023/02/09 05:38:46;;;;;;;4.57;2.80;;;-2.90;99.90;;;;;;5011946;28;20482;-68
2023/02/09 05:42:14;;;;;;;3.50;2.70;;;-2.90;99.90;;;;;;5006966;28;20482;-68
2023/02/09 05:44:03;;;;;;;7.68;4.25;;;-3.00;99.90;;;;;;5001943;28;20030;-68
2023/02/09 05:46:29;;;;;;;6.65;3.55;;;-2.90;99.90;;;;;;5006874;28;20045;-68
2023/02/09 05:48:55;;;;;;;11.20;4.35;;;-2.90;99.90;;;;;;5002264;28;20033;-68
2023/02/09 05:51:20;;;;;;;9.63;4.40;;;-3.00;99.90;;;;;;5010651;28;20034;-68
2023/02/09 05:53:46;;;;;;;12.40;4.28;;;-3.00;99.90;;;;;;5011603;28;20034;-68
2023/02/09 05:56:12;;;;;;;6.05;2.45;;;-3.10;99.90;;;;;;5005542;28;20405;-68
2023/02/09 05:58:38;;;;;;;6.68;4.03;;;-3.10;99.90;;;;;;5007334;28;20448;-67
2023/02/09 06:01:04;;;;;;;10.82;4.32;;;-3.10;99.90;;;;;;5006194;28;20642;-69
2023/02/09 06:03:30;;;;;;;8.20;3.75;;;-3.20;99.90;;;;;;5001885;28;20153;-66
2023/02/09 06:05:56;;;;;;;9.57;5.10;;;-3.20;99.90;;;;;;5005740;28;20072;-66
2023/02/09 06:08:22;;;;;;;10.25;4.15;;;-3.20;99.90;;;;;;4980588;28;20053;-67
2023/02/09 06:10:48;;;;;;;3.60;2.58;;;-3.20;99.90;;;;;;4996682;28;20105;-67
2023/02/09 06:13:13;;;;;;;5.32;3.28;;;-3.30;99.90;;;;;;5001737;28;20042;-67
2023/02/09 06:15:39;;;;;;;10.82;4.63;;;-3.30;99.90;;;;;;5011505;28;20493;-67
2023/02/09 06:18:05;;;;;;;6.53;3.53;;;-3.40;99.90;;;;;;5011254;28;20053;-67
2023/02/09 06:20:31;;;;;;;7.93;3.88;;;-3.40;99.90;;;;;;5006521;28;20109;-67
2023/02/09 06:22:56;;;;;;;8.07;2.90;;;-3.50;99.90;;;;;;5004201;28;20257;-66
2023/02/09 06:25:22;;;;;;;7.25;4.25;;;-3.80;99.90;;;;;;5002367;28;20029;-66
2023/02/09 06:27:48;;;;;;;13.10;3.88;;;-3.80;99.90;;;;;;5002395;28;20030;-65
2023/02/09 06:30:13;;;;;;;10.75;3.45;;;-3.80;99.90;;;;;;5010703;28;20045;-66
2023/02/09 06:32:39;;;;;;;6.43;3.38;;;-3.90;99.90;;;;;;4992515;28;20676;-65
2023/02/09 06:35:05;;;;;;;6.93;4.00;;;-4.10;99.90;;;;;;5010531;28;20064;-65
2023/02/09 06:37:32;;;;;;;5.90;3.92;;;-4.10;99.90;;;;;;5003195;28;20188;-65
2023/02/09 06:39:57;;;;;;;19.08;3.33;;;-4.10;99.90;;;;;;5010775;28;20496;-65
2023/02/09 06:42:23;;;;;;;5.63;3.25;;;-4.20;99.90;;;;;;5003402;28;20064;-67
2023/02/09 06:44:49;;;;;;;14.30;6.00;;;-4.40;99.90;;;;;;5010340;28;20076;-66
2023/02/09 06:47:14;;;;;;;8.02;2.78;;;-4.30;99.90;;;;;;5003066;28;20041;-65
2023/02/09 06:49:40;;;;;;;9.85;5.00;;;-4.30;99.90;;;;;;5010730;28;20049;-65
2023/02/09 06:52:06;;;;;;;12.60;4.65;;;-4.30;99.90;;;;;;5003129;28;20124;-65
2023/02/09 06:54:32;;;;;;;10.15;4.95;;;-4.20;99.90;;;;;;5010416;28;20041;-65
2023/02/09 06:56:57;;;;;;;6.05;3.75;;;-4.10;99.90;;;;;;5003667;28;20046;-65
2023/02/09 06:59:23;;;;;;;16.08;5.22;;;-4.00;99.90;;;;;;5008827;28;20037;-66
2023/02/09 07:01:51;;;;;;;17.45;4.53;;;-4.00;99.90;;;;;;5006163;28;20046;-65
2023/02/09 07:04:17;;;;;;;15.02;4.75;;;-4.00;99.90;;;;;;4988173;28;20743;-66
2023/02/09 07:06:42;;;;;;;45.35;11.93;;;-3.90;99.90;;;;;;5010946;28;20145;-65
2023/02/09 07:09:08;;;;;;;8.80;5.82;;;-3.90;99.90;;;;;;5002612;28;20062;-66
2023/02/09 07:11:34;;;;;;;22.00;5.25;;;-3.90;99.90;;;;;;4997218;28;20178;-67
2023/02/09 07:14:00;;;;;;;11.13;6.20;;;-3.90;99.90;;;;;;5000450;28;20465;-66
2023/02/09 07:16:25;;;;;;;9.20;3.20;;;-3.80;99.90;;;;;;4997680;28;20108;-67
2023/02/09 07:18:51;;;;;;;7.60;2.95;;;-3.80;99.90;;;;;;5010874;28;20060;-68
2023/02/09 07:21:20;;;;;;;15.73;7.75;;;-3.90;99.90;;;;;;5009496;28;20040;-70
2023/02/09 07:23:47;;;;;;;11.63;5.55;;;-3.80;99.90;;;;;;5010180;28;20034;-69
2023/02/09 07:26:16;;;;;;;25.27;5.07;;;-3.70;99.90;;;;;;4995070;28;20084;-70
2023/02/09 07:28:42;;;;;;;12.20;4.95;;;-3.60;99.90;;;;;;5010392;28;20108;-69
2023/02/09 07:31:11;;;;;;;16.25;3.83;;;-3.60;99.90;;;;;;5008523;28;20073;-70
2023/02/09 07:33:36;;;;;;;9.75;5.60;;;-3.60;99.90;;;;;;5007161;28;20553;-72
2023/02/09 07:36:05;;;;;;;8.20;3.30;;;-3.60;99.90;;;;;;4977683;28;20039;-70
2023/02/09 07:38:31;;;;;;;6.40;3.33;;;-3.50;99.90;;;;;;5000269;28;20045;-70
2023/02/09 07:40:59;;;;;;;10.90;5.00;;;-3.50;99.90;;;;;;5003902;28;20030;-70
2023/02/09 07:43:26;;;;;;;7.53;5.22;;;-3.50;99.90;;;;;;5008804;28;20048;-71
2023/02/09 07:45:52;;;;;;;8.63;4.13;;;-3.40;99.90;;;;;;5014230;28;20062;-70
2023/02/09 07:48:18;;;;;;;8.27;4.70;;;-3.40;99.90;;;;;;5011079;28;20033;-71
2023/02/09 07:50:50;;;;;;;16.85;5.25;;;-3.30;99.90;;;;;;5012008;28;20383;-70
2023/02/09 07:53:16;;;;;;;6.00;3.92;;;-3.20;99.90;;;;;;5000240;28;20041;-70
2023/02/09 07:55:42;;;;;;;12.95;5.43;;;-3.10;99.90;;;;;;5008890;28;20034;-71
2023/02/09 07:58:07;;;;;;;18.02;5.55;;;-3.10;99.90;;;;;;5012059;28;20107;-71
2023/02/09 08:00:33;;;;;;;38.22;12.68;;;-3.00;99.90;;;;;;5013463;28;20048;-70
2023/02/09 08:02:59;;;;;;;11.45;5.70;;;-3.00;99.90;;;;;;5011303;28;20030;-70
2023/02/09 08:05:58;;;;;;;10.82;4.95;;;-2.90;99.90;;;;;;5013389;28;20026;-70
2023/02/09 08:08:24;;;;;;;23.27;7.65;;;-2.90;99.90;;;;;;5006336;28;20029;-73
2023/02/09 08:10:50;;;;;;;23.92;5.45;;;-2.80;99.90;;;;;;5011169;28;20048;-71
2023/02/09 08:13:16;;;;;;;13.13;6.38;;;-2.70;99.90;;;;;;5003783;28;20053;-70
2023/02/09 08:15:48;;;;;;;12.32;5.40;;;-2.70;99.90;;;;;;5011129;28;20038;-70
2023/02/09 08:18:43;;;;;;;8.68;5.20;;;-2.60;99.90;;;;;;5019466;28;20661;-69
2023/02/09 08:21:13;;;;;;;15.18;6.15;;;-2.50;99.90;;;;;;5009446;28;20400;-70
2023/02/09 08:23:40;;;;;;;12.77;8.63;;;-2.40;99.90;;;;;;5003615;28;20045;-70
2023/02/09 08:26:10;;;;;;;20.65;5.32;;;-2.30;99.90;;;;;;4998880;28;20576;-69
2023/02/09 08:28:37;;;;;;;15.45;4.78;;;-2.20;99.90;;;;;;5002654;28;20029;-70
2023/02/09 08:31:04;;;;;;;31.38;9.07;;;-2.20;99.90;;;;;;4984646;28;20076;-71
2023/02/09 08:33:29;;;;;;;9.20;4.60;;;-2.10;99.90;;;;;;5013120;28;20375;-71
2023/02/09 08:35:55;;;;;;;12.73;4.88;;;-2.00;99.90;;;;;;5006399;28;20176;-70
2023/02/09 08:38:21;;;;;;;15.18;6.18;;;-1.90;99.90;;;;;;5012934;28;20030;-67
2023/02/09 08:40:47;;;;;;;17.30;4.30;;;-1.70;99.90;;;;;;5012064;28;20513;-67
2023/02/09 08:43:13;;;;;;;14.10;6.88;;;-1.60;99.90;;;;;;5010377;28;20041;-67
2023/02/09 08:45:41;;;;;;;13.77;5.05;;;-1.60;99.90;;;;;;5011458;28;20073;-67
2023/02/09 08:48:09;;;;;;;14.82;7.15;;;-1.50;99.90;;;;;;4997519;28;20121;-67
2023/02/09 08:50:36;;;;;;;15.20;5.28;;;-1.50;99.90;;;;;;4998319;28;20113;-68
2023/02/09 08:53:02;;;;;;;9.40;3.58;;;-1.40;99.90;;;;;;5011777;28;20029;-68
2023/02/09 08:55:29;;;;;;;11.52;4.20;;;-1.30;99.90;;;;;;5002401;28;20030;-69
2023/02/09 08:57:55;;;;;;;10.20;4.47;;;-1.10;99.90;;;;;;5001614;28;20032;-69
2023/02/09 09:00:21;;;;;;;19.00;5.85;;;-1.00;99.90;;;;;;5002408;28;20394;-68
2023/02/09 09:02:47;;;;;;;22.90;7.18;;;-1.00;99.90;;;;;;4997749;28;20146;-69
2023/02/09 09:05:13;;;;;;;11.32;5.32;;;-0.80;99.90;;;;;;5012215;28;20046;-69
2023/02/09 09:07:39;;;;;;;45.08;15.80;;;-0.80;99.90;;;;;;4997010;28;20112;-69
2023/02/09 09:10:07;;;;;;;18.35;7.22;;;-0.60;99.90;;;;;;5012093;28;20121;-69
2023/02/09 09:12:33;;;;;;;30.23;6.95;;;-0.60;99.90;;;;;;4998550;28;20026;-69
2023/02/09 09:14:59;;;;;;;17.52;6.22;;;-0.50;99.90;;;;;;5011794;28;20120;-67
2023/02/09 09:17:25;;;;;;;8.27;3.72;;;-0.50;99.90;;;;;;5002347;28;20397;-68
2023/02/09 09:19:55;;;;;;;8.77;4.80;;;-0.40;99.90;;;;;;5003016;28;20022;-68
2023/02/09 09:22:24;;;;;;;15.07;7.20;;;-0.40;99.90;;;;;;5016454;28;20556;-68
2023/02/09 09:24:53;;;;;;;14.30;5.57;;;-0.30;99.90;;;;;;5009622;28;20107;-68
2023/02/09 09:27:18;;;;;;;12.90;5.88;;;-0.10;99.90;;;;;;5005491;28;20022;-68
2023/02/09 09:29:44;;;;;;;11.57;5.82;;;-0.20;99.90;;;;;;4998032;28;20026;-68
2023/02/09 09:32:14;;;;;;;13.98;5.28;;;0.00;99.90;;;;;;5007897;28;20034;-69
2023/02/09 09:34:41;;;;;;;17.30;5.57;;;0.10;99.90;;;;;;4992724;28;20100;-69
2023/02/09 09:37:06;;;;;;;14.52;5.93;;;0.10;99.90;;;;;;5016099;28;20485;-68
2023/02/09 09:39:32;;;;;;;14.48;6.95;;;0.20;99.90;;;;;;5009256;28;20038;-69
2023/02/09 09:41:59;;;;;;;20.70;6.72;;;0.50;99.90;;;;;;5010093;28;20037;-68
2023/02/09 09:44:41;;;;;;;10.90;5.93;;;0.70;99.90;;;;;;5006851;28;20508;-68
2023/02/09 09:47:15;;;;;;;20.50;5.15;;;0.70;99.90;;;;;;5015532;28;20037;-68
2023/02/09 09:49:41;;;;;;;17.25;6.68;;;0.30;99.90;;;;;;5006271;28;20026;-69
2023/02/09 09:52:41;;;;;;;18.02;7.90;;;0.50;99.90;;;;;;5015843;28;20034;-68
2023/02/09 09:55:20;;;;;;;10.38;6.07;;;0.70;99.90;;;;;;4963407;28;20045;-68
2023/02/09 09:57:46;;;;;;;18.58;7.57;;;0.90;99.90;;;;;;4986886;28;20040;-68
2023/02/09 10:00:21;;;;;;;12.50;5.97;;;1.00;99.90;;;;;;5006312;28;20101;-68
2023/02/09 10:02:47;;;;;;;13.57;5.13;;;1.00;99.90;;;;;;5001180;28;20088;-68
2023/02/09 10:05:18;;;;;;;13.38;5.78;;;0.90;99.90;;;;;;5011216;28;20050;-68
2023/02/09 10:07:53;;;;;;;42.58;9.13;;;1.00;99.90;;;;;;5010689;28;20061;-68
2023/02/09 10:10:43;;;;;;;12.50;5.68;;;1.40;99.90;;;;;;5002011;28;20149;-67
2023/02/09 10:13:25;;;;;;;9.18;4.90;;;1.50;99.90;;;;;;4993506;28;20069;-67
2023/02/09 10:15:55;;;;;;;23.58;7.97;;;1.60;99.90;;;;;;5011327;28;20030;-68
2023/02/09 10:18:25;;;;;;;23.45;7.03;;;1.60;99.90;;;;;;5008339;28;20033;-68
2023/02/09 10:20:59;;;;;;;12.70;6.25;;;2.30;99.90;;;;;;5011296;28;20683;-67
2023/02/09 10:23:41;;;;;;;20.67;8.68;;;3.40;99.90;;;;;;5007548;28;20057;-68
2023/02/09 10:26:07;;;;;;;12.95;5.20;;;3.80;99.90;;;;;;4979056;28;20030;-68
2023/02/09 10:28:38;;;;;;;30.85;6.10;;;4.20;99.60;;;;;;5007787;28;20041;-68
2023/02/09 10:31:22;;;;;;;12.43;5.75;;;3.70;99.70;;;;;;5010894;28;20030;-68
2023/02/09 10:33:55;;;;;;;12.90;7.45;;;3.80;99.50;;;;;;5002558;28;20030;-68
2023/02/09 10:36:45;;;;;;;18.92;8.15;;;3.30;99.90;;;;;;4974181;28;20485;-68
2023/02/09 10:39:11;;;;;;;15.70;6.75;;;4.50;99.10;;;;;;5001864;28;20116;-68
2023/02/09 10:41:39;;;;;;;14.48;7.35;;;4.60;98.50;;;;;;5010062;28;20092;-68
2023/02/09 10:44:21;;;;;;;22.95;7.18;;;4.20;98.90;;;;;;5001061;28;20033;-68
2023/02/09 10:46:47;;;;;;;17.83;6.13;;;5.60;98.50;;;;;;5007704;28;20057;-68
2023/02/09 10:49:37;;;;;;;15.80;6.82;;;4.50;96.90;;;;;;5018040;22;20137;-82
2023/02/09 10:52:18;;;;;;;14.55;7.28;;;3.90;98.60;;;;;;4982406;28;20033;-82
2023/02/09 10:54:55;;;;;;;18.48;7.10;;;5.20;98.20;;;;;;4976886;28;20079;-82
2023/02/09 10:57:29;;;;;;;23.75;7.20;;;5.30;97.00;;;;;;4982599;28;20456;-82
2023/02/09 10:59:59;;;;;;;15.45;6.85;;;4.70;97.80;;;;;;4958269;28;20479;-81
2023/02/09 11:02:40;;;;;;;11.93;6.65;;;4.30;97.80;;;;;;4998789;28;20030;-81
2023/02/09 11:05:20;;;;;;;17.75;6.82;;;3.90;98.40;;;;;;4983934;28;20107;-81
2023/02/09 11:08:15;;;;;;;11.40;6.10;;;4.00;99.40;;;;;;5006576;28;20374;-81
2023/02/09 11:11:02;;;;;;;19.10;7.28;;;4.30;98.80;;;;;;4995861;28;20038;-82
2023/02/09 11:13:28;;;;;;;12.23;6.78;;;4.70;98.70;;;;;;4974713;28;20026;-81
2023/02/09 11:16:07;;;;;;;15.05;5.93;;;4.90;97.60;;;;;;5002450;28;20034;-81
2023/02/09 11:18:34;;;;;;;22.67;7.30;;;5.30;97.70;;;;;;4959722;28;20060;-81
2023/02/09 11:21:29;;;;;;;11.77;6.00;;;5.10;97.60;;;;;;4989351;28;20030;-81
2023/02/09 11:24:02;;;;;;;21.85;6.82;;;5.40;97.50;;;;;;4990430;28;20038;-80
2023/02/09 11:26:53;;;;;;;16.58;6.72;;;4.80;96.90;;;;;;5014702;28;20038;-81
2023/02/09 11:29:39;;;;;;;15.23;7.72;;;5.30;97.70;;;;;;4978701;28;20046;-78
2023/02/09 11:32:35;;;;;;;14.15;7.20;;;7.00;95.90;;;;;;4997838;28;20505;-78
2023/02/09 11:35:10;;;;;;;16.15;7.15;;;5.30;95.60;;;;;;4998290;28;20053;-77
2023/02/09 11:37:48;;;;;;;28.30;7.65;;;5.70;94.60;;;;;;4997120;28;20478;-79
2023/02/09 11:40:38;;;;;;;21.83;7.57;;;6.10;94.00;;;;;;4996181;28;20513;-78
2023/02/09 11:43:14;;;;;;;16.38;7.10;;;6.60;94.60;;;;;;4997767;28;20507;-74
2023/02/09 11:45:54;;;;;;;17.92;7.38;;;7.10;93.30;;;;;;4995938;28;20096;-83
2023/02/09 11:48:39;;;;;;;21.17;8.35;;;7.80;92.30;;;;;;4970893;28;20359;-79
2023/02/09 11:51:24;;;;;;;16.08;6.82;;;6.60;94.20;;;;;;4997766;28;20026;-80
2023/02/09 11:54:16;;;;;;;17.02;6.82;;;7.60;92.20;;;;;;4979856;28;20030;-70
2023/02/09 11:56:47;;;;;;;18.60;7.40;;;6.30;94.20;;;;;;4983333;28;20030;-77
2023/02/09 11:59:33;;;;;;;20.08;6.90;;;6.10;93.80;;;;;;4980805;28;20637;-78
2023/02/09 12:02:57;;;;;;;16.23;7.78;;;6.40;93.30;;;;;;4953817;28;20122;-71
2023/02/09 12:05:24;;;;;;;18.20;7.47;;;8.30;92.60;;;;;;4935417;28;20149;-70
2023/02/09 12:08:31;;;;;;;15.57;7.50;;;6.80;92.40;;;;;;5000691;28;20038;-69
2023/02/09 12:11:30;;;;;;;16.13;6.78;;;7.00;92.50;;;;;;5011650;28;20041;-72
2023/02/09 12:14:27;;;;;;;21.10;6.68;;;7.00;91.90;;;;;;5017373;28;20374;-72
2023/02/09 12:17:04;;;;;;;23.58;7.40;;;9.00;90.20;;;;;;5023637;28;20033;-71
2023/02/09 12:19:40;;;;;;;22.85;7.75;;;9.00;90.20;;;;;;5002885;28;20469;-72
2023/02/09 12:22:34;;;;;;;16.38;7.70;;;9.70;87.40;;;;;;5006474;28;20026;-72
2023/02/09 12:25:21;;;;;;;21.05;8.27;;;7.40;89.20;;;;;;5007830;28;20093;-71
2023/02/09 12:28:13;;;;;;;20.52;8.05;;;8.20;90.80;;;;;;5018146;28;20045;-72
2023/02/09 12:30:39;;;;;;;18.83;7.18;;;6.50;91.00;;;;;;5011287;28;20030;-71
2023/02/09 12:33:32;;;;;;;18.45;7.90;;;6.30;91.50;;;;;;5022316;28;20040;-73
2023/02/09 12:36:11;;;;;;;16.92;8.13;;;6.70;92.30;;;;;;4979715;28;20533;-76
2023/02/09 12:38:56;;;;;;;23.88;8.25;;;6.90;92.50;;;;;;5016421;28;20183;-78
2023/02/09 12:41:27;;;;;;;20.08;8.38;;;7.70;89.80;;;;;;5003247;28;20473;-74
2023/02/09 12:44:08;;;;;;;19.23;8.48;;;6.60;91.40;;;;;;5004762;28;20125;-71
2023/02/09 12:46:43;;;;;;;19.95;8.10;;;7.10;91.20;;;;;;5003586;28;20049;-72
2023/02/09 12:49:26;;;;;;;23.38;9.35;;;7.40;91.80;;;;;;5005384;28;20034;-73
2023/02/09 12:52:01;;;;;;;15.68;8.35;;;7.80;90.20;;;;;;4983859;28;20056;-71
2023/02/09 12:54:30;;;;;;;19.50;7.90;;;7.10;91.10;;;;;;4994923;28;20034;-71
2023/02/09 12:57:15;;;;;;;23.20;9.23;;;7.00;92.00;;;;;;5020832;28;20052;-71
2023/02/09 12:59:59;;;;;;;29.73;9.18;;;7.60;90.50;;;;;;5015443;28;20038;-71
2023/02/09 13:02:51;;;;;;;15.65;7.30;;;7.30;90.40;;;;;;5005339;28;20658;-71
2023/02/09 13:05:29;;;;;;;41.35;9.23;;;7.80;90.10;;;;;;5004897;28;20036;-71
2023/02/09 13:08:17;;;;;;;22.55;7.85;;;8.30;88.30;;;;;;4998449;28;20025;-71
2023/02/09 13:11:17;;;;;;;19.83;7.55;;;8.70;88.70;;;;;;5018729;28;20084;-71
2023/02/09 13:14:06;;;;;;;20.23;7.53;;;10.20;84.20;;;;;;5001050;28;20113;-72
2023/02/09 13:17:02;;;;;;;23.90;7.30;;;7.60;90.50;;;;;;4989421;28;20030;-71